Time;durP1;ratioP1;P1;durP2;ratioP2;P2;SDS_P1;SDS_P2;PMS_P1;PMS_P2;Temp;Humidity;BMP_temperature;BMP_pressure;BME280_temperature;BME280_humidity;BME280_pressure;Samples;Min_cycle;Max_cycle;Signal;HPM_P1;HPM_P2
2023/12/17 00:00:41;;;;;;;11.87;8.67;;;5.80;77.90;4.10;98550.00;;;;4966955;28;20210;-85
2023/12/17 00:03:08;;;;;;;15.77;9.77;;;5.80;77.80;4.10;98562.00;;;;4969092;28;20646;-85
2023/12/17 00:05:35;;;;;;;12.10;9.20;;;5.80;77.70;4.10;98553.00;;;;4962475;28;20219;-86
2023/12/17 00:08:02;;;;;;;13.23;9.47;;;5.80;77.60;4.10;98559.00;;;;4965150;28;20282;-86
2023/12/17 00:10:29;;;;;;;10.93;8.47;;;5.80;77.60;4.00;98554.00;;;;4964306;28;20223;-85
2023/12/17 00:12:57;;;;;;;10.63;8.67;;;5.80;77.40;4.10;98557.00;;;;4964034;28;20227;-86
2023/12/17 00:15:24;;;;;;;12.27;9.53;;;6.40;77.70;4.00;98561.00;;;;4955282;28;20242;-86
2023/12/17 00:17:51;;;;;;;12.97;8.67;;;5.80;77.50;4.00;98573.00;;;;4962856;28;20231;-86
2023/12/17 00:20:18;;;;;;;11.33;8.97;;;5.70;77.40;4.00;98579.00;;;;4963633;28;20589;-86
2023/12/17 00:22:45;;;;;;;12.37;8.40;;;5.70;77.50;4.00;98568.00;;;;4965621;28;20219;-86
2023/12/17 00:25:12;;;;;;;10.70;8.47;;;5.70;77.60;4.00;98557.00;;;;4956111;28;20315;-86
2023/12/17 00:27:39;;;;;;;13.00;9.23;;;5.70;77.60;4.00;98569.00;;;;4961163;28;20284;-85
2023/12/17 00:30:09;;;;;;;10.97;8.53;;;5.70;77.60;4.00;98564.00;;;;4953716;28;20199;-85
2023/12/17 00:32:36;;;;;;;12.90;8.87;;;5.70;77.60;4.00;98554.00;;;;4953351;28;20708;-85
2023/12/17 00:35:04;;;;;;;10.90;8.37;;;5.70;77.60;4.00;98556.00;;;;4953839;28;20314;-86
2023/12/17 00:37:31;;;;;;;11.50;8.30;;;5.70;77.40;4.00;98554.00;;;;4961063;28;20772;-85
2023/12/17 00:39:58;;;;;;;12.10;8.87;;;6.40;77.70;3.90;98557.00;;;;4961047;28;20202;-85
2023/12/17 00:42:25;;;;;;;12.13;9.33;;;5.70;77.30;3.90;98556.00;;;;4960361;28;20235;-86
2023/12/17 00:44:52;;;;;;;14.33;9.40;;;5.70;77.40;3.90;98571.00;;;;4961592;28;20774;-86
2023/12/17 00:47:21;;;;;;;13.47;9.57;;;5.60;77.40;3.90;98572.00;;;;4963193;28;20739;-86
2023/12/17 00:49:48;;;;;;;12.70;9.40;;;5.60;77.40;3.90;98559.00;;;;4961940;28;20764;-86
2023/12/17 00:52:15;;;;;;;14.00;9.67;;;5.60;77.50;3.90;98565.00;;;;4953413;28;20286;-85
2023/12/17 00:54:42;;;;;;;11.10;8.57;;;5.60;77.40;3.80;98565.00;;;;4954055;28;20246;-85
2023/12/17 00:57:09;;;;;;;12.73;9.07;;;5.60;77.40;3.80;98581.00;;;;4958058;28;20195;-84
2023/12/17 00:59:36;;;;;;;10.33;8.10;;;5.60;77.40;3.90;98576.00;;;;4953728;28;20302;-85
2023/12/17 01:02:04;;;;;;;11.53;8.40;;;5.60;77.40;3.80;98578.00;;;;4960982;28;20195;-86
2023/12/17 01:04:32;;;;;;;11.87;9.10;;;5.60;77.60;3.80;98587.00;;;;4963028;28;20447;-86
2023/12/17 01:07:00;;;;;;;11.77;9.27;;;5.60;77.70;3.90;98585.00;;;;4966291;28;20203;-85
2023/12/17 01:09:27;;;;;;;12.63;9.50;;;5.60;77.90;3.90;98589.00;;;;4966761;28;20303;-85
2023/12/17 01:11:54;;;;;;;11.53;8.80;;;5.60;78.00;3.90;98582.00;;;;4959823;28;20210;-84
2023/12/17 01:14:21;;;;;;;12.73;9.00;;;5.60;78.10;3.90;98578.00;;;;4968612;28;20347;-86
2023/12/17 01:16:48;;;;;;;10.67;8.63;;;5.60;78.10;3.80;98579.00;;;;4960246;28;20380;-85
2023/12/17 01:19:15;;;;;;;13.50;9.10;;;5.60;77.80;3.90;98581.00;;;;4962184;28;20323;-84
2023/12/17 01:21:44;;;;;;;10.33;8.87;;;5.60;78.40;3.80;98582.00;;;;4956979;28;20660;-86
2023/12/17 01:24:12;;;;;;;11.07;8.50;;;5.60;77.70;3.80;98585.00;;;;4957031;28;20207;-85
2023/12/17 01:26:39;;;;;;;9.87;7.63;;;5.60;77.70;3.80;98588.00;;;;4959283;28;20223;-84
2023/12/17 01:29:06;;;;;;;9.27;8.37;;;5.70;77.70;3.80;98597.00;;;;4959150;28;20234;-84
2023/12/17 01:31:33;;;;;;;10.87;8.60;;;5.60;77.50;3.80;98585.00;;;;4958229;28;20286;-84
2023/12/17 01:34:00;;;;;;;11.10;8.63;;;5.50;77.20;3.80;98577.00;;;;4964591;28;20228;-86
2023/12/17 01:36:28;;;;;;;12.30;8.13;;;5.50;77.20;3.70;98584.00;;;;4967579;28;20302;-86
2023/12/17 01:38:56;;;;;;;10.70;8.47;;;5.50;77.10;3.70;98582.00;;;;4963660;28;20611;-85
2023/12/17 01:41:23;;;;;;;13.00;8.70;;;5.50;77.20;3.70;98588.00;;;;4959443;28;20383;-85
2023/12/17 01:43:50;;;;;;;10.37;8.23;;;5.50;77.30;3.70;98596.00;;;;4968441;28;20199;-85
2023/12/17 01:46:18;;;;;;;10.33;8.30;;;5.50;77.30;3.70;98599.00;;;;4962721;28;20231;-84
2023/12/17 01:48:46;;;;;;;11.47;8.33;;;5.50;77.30;3.70;98604.00;;;;4956297;28;20283;-85
2023/12/17 01:51:13;;;;;;;13.57;9.17;;;5.50;77.30;3.70;98599.00;;;;4956820;28;20662;-85
2023/12/17 01:53:41;;;;;;;11.13;8.70;;;5.40;77.40;3.70;98602.00;;;;4956170;28;20283;-86
2023/12/17 01:56:13;;;;;;;12.77;9.37;;;5.40;77.50;3.70;98609.00;;;;4954956;28;20335;-86
2023/12/17 01:58:41;;;;;;;15.50;10.67;;;5.40;77.70;3.70;98607.00;;;;4956857;28;20722;-85
2023/12/17 02:01:08;;;;;;;16.87;10.67;;;5.40;77.80;3.70;98607.00;;;;4963339;28;20274;-84
2023/12/17 02:03:35;;;;;;;15.23;9.63;;;5.50;77.90;3.70;98604.00;;;;4967958;28;20210;-83
2023/12/17 02:06:01;;;;;;;12.73;9.20;;;5.50;77.90;3.70;98610.00;;;;4966227;28;20593;-85
2023/12/17 02:08:29;;;;;;;12.73;8.87;;;5.50;77.90;3.70;98606.00;;;;4962609;28;20295;-83
2023/12/17 02:10:56;;;;;;;23.33;10.50;;;5.50;77.80;3.70;98612.00;;;;4959571;28;20255;-85
2023/12/17 02:13:24;;;;;;;19.50;9.63;;;5.40;78.40;3.70;98606.00;;;;4957740;28;20204;-86
2023/12/17 02:15:51;;;;;;;15.23;9.93;;;5.50;77.60;3.70;98610.00;;;;4958939;28;20750;-86
2023/12/17 02:18:18;;;;;;;16.73;9.07;;;5.50;77.50;3.70;98601.00;;;;4965642;28;20294;-85
2023/12/17 02:20:45;;;;;;;12.67;8.93;;;5.40;77.20;3.60;98603.00;;;;4961919;28;20689;-86
2023/12/17 02:23:14;;;;;;;18.87;9.03;;;5.40;77.10;3.60;98602.00;;;;4968702;28;20203;-85
2023/12/17 02:25:41;;;;;;;15.83;8.97;;;5.40;77.10;3.60;98589.00;;;;4964962;28;20634;-86
2023/12/17 02:28:08;;;;;;;21.20;9.60;;;5.40;77.30;3.60;98585.00;;;;4968583;28;20286;-84
2023/12/17 02:30:35;;;;;;;19.20;10.10;;;5.40;77.30;3.60;98597.00;;;;4956995;28;20282;-85
2023/12/17 02:33:02;;;;;;;14.20;9.50;;;5.30;77.20;3.50;98595.00;;;;4960737;28;20674;-86
2023/12/17 02:35:29;;;;;;;13.53;9.00;;;5.30;77.20;3.50;98600.00;;;;4972519;28;20255;-86
2023/12/17 02:37:56;;;;;;;12.33;8.70;;;5.30;77.30;3.50;98595.00;;;;4963126;28;20286;-86
2023/12/17 02:40:25;;;;;;;12.10;8.47;;;5.30;77.30;3.50;98598.00;;;;4957042;28;20295;-86
2023/12/17 02:42:52;;;;;;;13.67;9.60;;;5.60;77.40;3.50;98593.00;;;;4962326;28;20650;-87
2023/12/17 02:45:19;;;;;;;14.93;9.63;;;5.30;77.30;3.50;98588.00;;;;4963339;28;20801;-86
2023/12/17 02:47:46;;;;;;;10.03;8.10;;;5.30;77.30;3.50;98588.00;;;;4954547;28;20231;-86
2023/12/17 02:50:13;;;;;;;10.90;8.10;;;5.20;77.30;3.40;98575.00;;;;4958993;28;20209;-85
2023/12/17 02:52:40;;;;;;;11.50;8.33;;;5.30;77.30;3.40;98576.00;;;;4963762;28;20684;-86
2023/12/17 02:55:09;;;;;;;11.07;8.30;;;5.20;77.00;3.40;98575.00;;;;4965006;28;20223;-85
2023/12/17 02:57:37;;;;;;;10.97;7.70;;;5.20;77.00;3.40;98582.00;;;;4963253;28;20227;-86
2023/12/17 03:00:06;;;;;;;9.40;7.40;;;5.20;77.20;3.40;98577.00;;;;4961481;28;20577;-84
2023/12/17 03:02:34;;;;;;;10.57;7.87;;;5.20;77.40;3.40;98581.00;;;;4966936;28;20254;-84
2023/12/17 03:05:01;;;;;;;10.87;8.30;;;5.20;77.50;3.40;98577.00;;;;4966090;28;20227;-84
2023/12/17 03:07:30;;;;;;;9.27;7.63;;;5.10;77.40;3.40;98583.00;;;;4962885;28;20644;-84
2023/12/17 03:09:57;;;;;;;11.17;7.73;;;5.20;77.60;3.40;98577.00;;;;4963589;28;20196;-84
2023/12/17 03:12:24;;;;;;;11.00;7.87;;;5.20;77.50;3.40;98573.00;;;;4956358;28;20299;-84
2023/12/17 03:14:53;;;;;;;12.73;8.73;;;5.20;77.60;3.40;98579.00;;;;4964907;28;20306;-83
2023/12/17 03:17:20;;;;;;;9.50;7.30;;;5.20;77.70;3.40;98579.00;;;;4960882;28;20287;-84
2023/12/17 03:19:47;;;;;;;11.30;7.70;;;5.20;78.30;3.40;98588.00;;;;4966695;28;20203;-84
2023/12/17 03:22:14;;;;;;;12.80;9.00;;;5.20;77.60;3.40;98589.00;;;;4964755;28;20324;-86
2023/12/17 03:24:41;;;;;;;11.17;8.57;;;5.20;77.60;3.40;98572.00;;;;4960755;28;20282;-84
2023/12/17 03:27:08;;;;;;;11.63;8.33;;;5.20;77.60;3.40;98564.00;;;;4962452;28;20287;-85
2023/12/17 03:29:36;;;;;;;10.80;8.00;;;5.20;78.20;3.40;98561.00;;;;4965841;28;20282;-85
2023/12/17 03:32:05;;;;;;;11.67;7.83;;;5.20;77.20;3.40;98564.00;;;;4966167;28;20665;-86
2023/12/17 03:34:33;;;;;;;8.97;7.23;;;5.20;77.30;3.40;98561.00;;;;4962354;28;20732;-85
2023/12/17 03:37:00;;;;;;;9.23;7.63;;;5.40;77.40;3.40;98561.00;;;;4962535;28;20286;-85
2023/12/17 03:39:27;;;;;;;10.30;7.93;;;5.20;77.30;3.40;98555.00;;;;4962710;28;20288;-86
2023/12/17 03:41:54;;;;;;;9.73;8.47;;;5.20;77.40;3.40;98555.00;;;;4953750;28;20282;-85
2023/12/17 03:44:21;;;;;;;9.83;8.00;;;5.20;77.30;3.40;98559.00;;;;4961521;28;20306;-85
2023/12/17 03:46:48;;;;;;;9.50;7.50;;;5.20;77.20;3.40;98559.00;;;;4953224;28;20230;-85
2023/12/17 03:49:16;;;;;;;9.50;7.17;;;5.20;77.10;3.40;98557.00;;;;4958319;28;20291;-85
2023/12/17 03:51:43;;;;;;;8.60;7.60;;;5.20;76.80;3.30;98557.00;;;;4957794;28;20298;-85
2023/12/17 03:54:10;;;;;;;9.77;7.67;;;5.10;76.70;3.30;98547.00;;;;4954745;28;20214;-85
2023/12/17 03:56:37;;;;;;;9.47;7.07;;;5.10;76.80;3.30;98546.00;;;;4957762;28;20910;-85
2023/12/17 03:59:05;;;;;;;9.83;7.70;;;5.10;76.70;3.30;98544.00;;;;4959329;28;20286;-85
2023/12/17 04:01:32;;;;;;;10.10;8.10;;;5.10;76.60;3.20;98536.00;;;;4958894;28;20245;-85
2023/12/17 04:03:59;;;;;;;8.73;7.17;;;5.10;76.50;3.20;98534.00;;;;4961850;28;20192;-85
2023/12/17 04:06:27;;;;;;;11.40;8.03;;;5.00;76.50;3.20;98528.00;;;;4954086;28;20713;-85
2023/12/17 04:08:54;;;;;;;11.63;8.10;;;4.90;76.50;3.20;98523.00;;;;4958350;28;20686;-84
2023/12/17 04:11:21;;;;;;;11.97;8.10;;;5.00;76.70;3.20;98515.00;;;;4955159;28;20292;-85
2023/12/17 04:13:49;;;;;;;10.37;7.53;;;5.00;77.40;3.20;98522.00;;;;4965077;28;20238;-85
2023/12/17 04:16:16;;;;;;;9.97;7.23;;;5.00;77.00;3.20;98526.00;;;;4956441;28;20785;-85
2023/12/17 04:18:43;;;;;;;7.67;6.83;;;5.00;77.30;3.20;98518.00;;;;4960601;28;20197;-85
2023/12/17 04:21:10;;;;;;;8.07;6.77;;;4.90;77.30;3.20;98503.00;;;;4954233;28;20240;-85
2023/12/17 04:23:38;;;;;;;7.90;6.63;;;5.00;77.30;3.20;98494.00;;;;4957995;28;20298;-85
2023/12/17 04:26:06;;;;;;;8.20;6.70;;;5.00;77.20;3.20;98494.00;;;;4962346;28;20246;-84
2023/12/17 04:28:33;;;;;;;8.30;6.23;;;5.00;77.40;3.20;98491.00;;;;4960390;28;20203;-81
2023/12/17 04:31:00;;;;;;;6.93;5.87;;;5.00;77.50;3.20;98482.00;;;;4964709;28;20286;-84
2023/12/17 04:33:27;;;;;;;8.20;6.30;;;5.00;77.60;3.20;98488.00;;;;4961794;28;20204;-84
2023/12/17 04:35:54;;;;;;;6.00;5.40;;;5.00;77.50;3.20;98491.00;;;;4962686;28;20235;-84
2023/12/17 04:38:23;;;;;;;6.97;5.67;;;5.00;77.40;3.20;98484.00;;;;4964288;28;20205;-84
2023/12/17 04:40:52;;;;;;;6.03;5.37;;;5.00;77.40;3.20;98483.00;;;;4961138;28;20211;-85
2023/12/17 04:43:20;;;;;;;5.27;4.77;;;5.00;77.20;3.20;98491.00;;;;4962294;28;20206;-85
2023/12/17 04:45:47;;;;;;;5.60;4.70;;;5.00;77.20;3.20;98492.00;;;;4957942;28;20866;-85
2023/12/17 04:48:14;;;;;;;6.53;5.07;;;5.00;77.40;3.20;98491.00;;;;4955928;28;20203;-85
2023/12/17 04:50:43;;;;;;;6.20;4.83;;;5.00;77.50;3.30;98499.00;;;;4952735;28;20267;-85
2023/12/17 04:53:10;;;;;;;6.00;4.77;;;5.00;77.50;3.30;98503.00;;;;4959749;28;20276;-85
2023/12/17 04:55:37;;;;;;;5.50;5.00;;;5.10;77.60;3.20;98505.00;;;;4962580;28;20808;-85
2023/12/17 04:58:05;;;;;;;6.47;5.00;;;5.40;77.70;3.30;98506.00;;;;4958917;28;20283;-84
2023/12/17 05:00:32;;;;;;;6.33;5.70;;;5.00;77.50;3.30;98503.00;;;;4963901;28;20192;-85
2023/12/17 05:02:59;;;;;;;6.23;5.23;;;5.10;77.50;3.30;98495.00;;;;4963489;28;20195;-83
2023/12/17 05:05:26;;;;;;;6.07;5.27;;;5.10;77.40;3.20;98497.00;;;;4953457;28;20255;-85
2023/12/17 05:07:53;;;;;;;5.27;4.77;;;5.10;77.20;3.20;98499.00;;;;4953241;28;20299;-84
2023/12/17 05:10:21;;;;;;;4.87;4.37;;;5.00;77.00;3.20;98490.00;;;;4957413;28;20295;-85
2023/12/17 05:12:48;;;;;;;5.60;4.87;;;5.00;77.00;3.20;98498.00;;;;4959180;28;20247;-85
2023/12/17 05:15:16;;;;;;;4.80;4.40;;;5.00;77.20;3.20;98492.00;;;;4960981;28;20235;-85
2023/12/17 05:17:43;;;;;;;6.67;4.93;;;5.00;77.00;3.20;98488.00;;;;4958238;28;20326;-85
2023/12/17 05:20:11;;;;;;;4.67;4.27;;;5.00;77.20;3.20;98490.00;;;;4956032;28;20283;-84
2023/12/17 05:22:38;;;;;;;6.43;4.47;;;5.00;77.20;3.20;98499.00;;;;4953174;28;20200;-84
2023/12/17 05:25:06;;;;;;;5.33;4.83;;;5.00;77.30;3.20;98502.00;;;;4953575;28;20322;-84
2023/12/17 05:27:33;;;;;;;4.97;4.07;;;5.00;77.10;3.20;98500.00;;;;4962879;28;20211;-85
2023/12/17 05:30:00;;;;;;;5.53;4.90;;;5.00;76.90;3.20;98497.00;;;;4963178;28;20191;-85
2023/12/17 05:32:28;;;;;;;5.27;4.77;;;5.00;76.80;3.20;98507.00;;;;4961576;28;20231;-85
2023/12/17 05:34:57;;;;;;;5.03;4.53;;;5.00;76.80;3.20;98501.00;;;;4960886;28;20244;-85
2023/12/17 05:37:24;;;;;;;5.17;4.57;;;5.00;77.00;3.10;98491.00;;;;4961024;28;20210;-85
2023/12/17 05:39:51;;;;;;;4.83;4.33;;;5.00;76.90;3.10;98503.00;;;;4962313;28;20201;-85
2023/12/17 05:42:18;;;;;;;4.67;4.27;;;5.00;76.80;3.10;98500.00;;;;4958792;28;20291;-85
2023/12/17 05:44:45;;;;;;;5.10;4.50;;;4.90;76.90;3.10;98505.00;;;;4956173;28;20302;-85
2023/12/17 05:47:12;;;;;;;5.20;4.70;;;4.90;76.90;3.10;98503.00;;;;4961851;28;20329;-84
2023/12/17 05:49:41;;;;;;;5.33;4.83;;;4.90;76.90;3.10;98508.00;;;;4963324;28;20670;-85
2023/12/17 05:52:09;;;;;;;5.40;4.77;;;4.90;77.10;3.10;98503.00;;;;4958302;28;20222;-84
2023/12/17 05:54:38;;;;;;;4.90;4.40;;;6.00;77.90;3.10;98503.00;;;;4956202;28;20200;-84
2023/12/17 05:57:06;;;;;;;4.60;4.20;;;4.90;77.00;3.10;98494.00;;;;4966226;28;20741;-84
2023/12/17 05:59:33;;;;;;;4.50;4.07;;;4.90;77.00;3.10;98504.00;;;;4964934;28;20294;-84
2023/12/17 06:02:00;;;;;;;5.03;4.63;;;4.90;77.10;3.10;98500.00;;;;4957815;28;20206;-84
2023/12/17 06:04:27;;;;;;;4.43;4.03;;;4.90;77.20;3.10;98493.00;;;;4957254;28;20291;-84
2023/12/17 06:06:56;;;;;;;5.20;4.70;;;4.90;77.30;3.10;98492.00;;;;4956502;28;20287;-84
2023/12/17 06:09:23;;;;;;;4.40;3.80;;;4.90;77.30;3.10;98499.00;;;;4960867;28;20211;-84
2023/12/17 06:11:50;;;;;;;4.50;3.80;;;4.90;77.40;3.10;98497.00;;;;4959309;28;20230;-84
2023/12/17 06:14:18;;;;;;;4.30;3.90;;;4.90;77.40;3.10;98515.00;;;;4965221;28;20207;-86
2023/12/17 06:16:45;;;;;;;4.90;4.40;;;4.90;77.40;3.10;98510.00;;;;4966728;28;20229;-85
2023/12/17 06:19:12;;;;;;;4.33;3.90;;;4.80;77.30;3.10;98494.00;;;;4967239;28;20804;-85
2023/12/17 06:21:39;;;;;;;4.20;3.80;;;4.90;77.30;3.10;98490.00;;;;4970453;28;20232;-83
2023/12/17 06:24:08;;;;;;;4.53;4.10;;;4.90;77.10;3.10;98492.00;;;;4958691;28;20283;-82
2023/12/17 06:26:36;;;;;;;4.60;4.03;;;4.90;76.70;3.10;98492.00;;;;4955887;28;20287;-84
2023/12/17 06:29:03;;;;;;;4.00;3.70;;;4.90;76.40;3.00;98494.00;;;;4965289;28;20290;-84
2023/12/17 06:31:31;;;;;;;3.80;3.50;;;4.90;76.40;3.00;98482.00;;;;4954425;28;20286;-84
2023/12/17 06:33:58;;;;;;;4.10;3.70;;;4.90;76.40;3.00;98493.00;;;;4965581;28;20294;-85
2023/12/17 06:36:25;;;;;;;5.10;3.97;;;4.80;76.50;3.00;98501.00;;;;4963316;28;20266;-84
2023/12/17 06:38:52;;;;;;;5.03;3.90;;;4.80;76.60;3.00;98496.00;;;;4962700;28;20433;-85
2023/12/17 06:41:21;;;;;;;4.30;3.90;;;4.80;76.50;2.90;98497.00;;;;4954605;28;20208;-84
2023/12/17 06:43:48;;;;;;;4.53;4.00;;;4.80;76.50;2.90;98498.00;;;;4964692;28;20744;-84
2023/12/17 06:46:18;;;;;;;3.70;3.40;;;4.80;76.60;2.90;98493.00;;;;4964790;28;20232;-84
2023/12/17 06:48:50;;;;;;;5.00;3.70;;;4.80;77.30;2.90;98493.00;;;;4963711;28;20299;-84
2023/12/17 06:51:17;;;;;;;4.80;4.30;;;4.90;76.80;2.90;98496.00;;;;4959352;28;20283;-85
2023/12/17 06:53:46;;;;;;;4.70;4.30;;;4.80;76.90;2.90;98488.00;;;;4955537;28;20255;-84
2023/12/17 06:56:13;;;;;;;4.63;3.80;;;4.70;76.70;2.90;98478.00;;;;4963299;28;20227;-85
2023/12/17 06:58:42;;;;;;;4.77;4.07;;;4.90;76.60;2.90;98476.00;;;;4957481;28;20211;-85
2023/12/17 07:01:09;;;;;;;4.47;3.73;;;4.70;76.40;2.90;98472.00;;;;4960493;28;20206;-85
2023/12/17 07:03:36;;;;;;;4.10;3.80;;;4.70;76.70;2.90;98474.00;;;;4966051;28;20727;-86
2023/12/17 07:06:03;;;;;;;4.97;4.17;;;4.70;76.80;2.90;98477.00;;;;4961678;28;20227;-85
2023/12/17 07:08:30;;;;;;;5.17;4.20;;;4.70;76.70;2.90;98493.00;;;;4955927;28;20236;-84
2023/12/17 07:10:57;;;;;;;4.80;4.20;;;4.70;76.90;2.90;98490.00;;;;4964839;28;20303;-84
2023/12/17 07:13:25;;;;;;;5.67;4.33;;;4.70;77.00;2.90;98486.00;;;;4964202;28;20208;-84
2023/12/17 07:15:53;;;;;;;4.10;3.70;;;4.70;77.10;2.90;98491.00;;;;4960193;28;20255;-85
2023/12/17 07:18:20;;;;;;;7.63;4.80;;;4.70;76.70;2.90;98490.00;;;;4959493;28;20206;-84
2023/12/17 07:20:47;;;;;;;4.60;4.10;;;4.70;76.70;2.90;98496.00;;;;4956393;28;20671;-84
2023/12/17 07:23:14;;;;;;;4.23;3.93;;;4.80;76.70;2.90;98489.00;;;;4964351;28;20200;-85
2023/12/17 07:25:41;;;;;;;4.77;3.93;;;4.70;76.70;2.90;98493.00;;;;4965830;28;20310;-86
2023/12/17 07:28:08;;;;;;;5.47;4.30;;;4.70;77.00;2.90;98482.00;;;;4960426;28;20196;-84
2023/12/17 07:30:36;;;;;;;5.03;4.47;;;4.70;76.90;2.90;98479.00;;;;4966265;28;20203;-82
2023/12/17 07:33:06;;;;;;;5.60;5.10;;;4.70;77.00;2.90;98480.00;;;;4963045;28;20216;-84
2023/12/17 07:35:33;;;;;;;8.77;5.47;;;4.70;77.00;2.90;98483.00;;;;4961580;28;20267;-85
2023/12/17 07:38:00;;;;;;;6.50;5.90;;;4.70;77.10;2.90;98485.00;;;;4961629;28;20575;-85
2023/12/17 07:40:27;;;;;;;6.83;5.80;;;4.70;77.30;2.90;98479.00;;;;4953321;28;20271;-85
2023/12/17 07:42:54;;;;;;;9.87;6.80;;;4.80;77.50;3.00;98483.00;;;;4965161;28;20214;-84
2023/12/17 07:45:21;;;;;;;8.03;6.57;;;4.80;77.60;3.00;98491.00;;;;4962370;28;20299;-85
2023/12/17 07:47:48;;;;;;;8.10;6.80;;;4.80;77.70;3.00;98495.00;;;;4966429;28;20207;-84
2023/12/17 07:50:17;;;;;;;7.43;6.50;;;4.80;77.80;3.10;98490.00;;;;4965001;28;20226;-85
2023/12/17 07:52:44;;;;;;;10.10;7.47;;;4.90;77.90;3.10;98497.00;;;;4954878;28;20200;-85
2023/12/17 07:55:11;;;;;;;11.20;7.63;;;4.90;78.00;3.20;98496.00;;;;4959601;28;20227;-84
2023/12/17 07:57:40;;;;;;;8.83;7.13;;;5.00;78.10;3.20;98498.00;;;;4960447;28;20307;-86
2023/12/17 08:00:08;;;;;;;10.20;8.20;;;5.00;78.00;3.30;98496.00;;;;4965462;28;20227;-83
2023/12/17 08:02:35;;;;;;;10.07;8.07;;;5.10;77.80;3.30;98505.00;;;;4967193;28;20725;-84
2023/12/17 08:05:05;;;;;;;9.50;8.17;;;5.10;77.60;3.30;98501.00;;;;4958383;28;20298;-84
2023/12/17 08:07:34;;;;;;;9.50;7.00;;;5.20;77.70;3.40;98507.00;;;;4963613;28;20218;-84
2023/12/17 08:10:03;;;;;;;6.90;6.20;;;5.20;77.70;3.40;98515.00;;;;4958183;28;20202;-85
2023/12/17 08:12:30;;;;;;;7.37;6.00;;;5.30;77.80;3.50;98516.00;;;;4969896;28;20210;-85
2023/12/17 08:14:57;;;;;;;7.23;5.90;;;5.40;77.90;3.60;98514.00;;;;4966217;28;20218;-85
2023/12/17 08:17:24;;;;;;;7.63;6.47;;;5.40;78.10;3.60;98518.00;;;;4955750;28;20673;-85
2023/12/17 08:19:51;;;;;;;7.20;5.90;;;5.40;78.10;3.60;98518.00;;;;4959128;28;20718;-85
2023/12/17 08:22:18;;;;;;;6.33;5.73;;;5.50;78.10;3.70;98514.00;;;;4954544;28;20291;-85
2023/12/17 08:24:47;;;;;;;6.43;5.37;;;6.50;78.80;3.70;98515.00;;;;4959119;28;20200;-85
2023/12/17 08:27:14;;;;;;;6.50;5.40;;;5.50;78.40;3.70;98516.00;;;;4958854;28;20211;-85
2023/12/17 08:29:47;;;;;;;7.27;5.63;;;5.60;78.20;3.80;98515.00;;;;4965682;28;20223;-85
2023/12/17 08:32:14;;;;;;;6.23;5.47;;;5.60;78.30;3.90;98527.00;;;;4960942;28;20195;-86
2023/12/17 08:34:41;;;;;;;5.70;5.10;;;5.70;78.30;3.90;98524.00;;;;4959173;28;20231;-85
2023/12/17 08:37:08;;;;;;;5.93;5.03;;;5.80;78.50;3.90;98541.00;;;;4955157;28;20224;-86
2023/12/17 08:39:35;;;;;;;4.83;4.33;;;5.70;78.30;4.00;98536.00;;;;4961908;28;20282;-86
2023/12/17 08:42:05;;;;;;;5.57;4.43;;;5.80;78.40;4.00;98542.00;;;;4960148;28;20197;-86
2023/12/17 08:44:32;;;;;;;7.43;4.57;;;5.80;78.40;4.10;98536.00;;;;4953621;28;20215;-87
2023/12/17 08:46:59;;;;;;;5.00;4.37;;;5.90;78.60;4.10;98541.00;;;;4961082;28;20207;-86
2023/12/17 08:49:26;;;;;;;5.10;4.60;;;5.90;78.70;4.20;98535.00;;;;4957248;28;20211;-86
2023/12/17 08:51:53;;;;;;;4.03;3.70;;;6.00;78.80;4.20;98541.00;;;;4960877;28;20850;-86
2023/12/17 08:54:20;;;;;;;4.37;3.80;;;6.00;79.00;4.30;98528.00;;;;4958280;28;20313;-87
2023/12/17 08:56:47;;;;;;;4.43;4.00;;;6.10;79.10;4.30;98530.00;;;;4953198;28;20322;-87
2023/12/17 08:59:16;;;;;;;4.20;3.60;;;6.10;79.20;4.40;98527.00;;;;4960906;28;20200;-86
2023/12/17 09:01:43;;;;;;;3.60;3.30;;;6.10;79.30;4.40;98521.00;;;;4963273;28;20726;-85
2023/12/17 09:04:10;;;;;;;4.43;3.63;;;6.20;79.40;4.50;98528.00;;;;4961080;28;20654;-86
2023/12/17 09:06:44;;;;;;;4.40;4.00;;;6.20;79.40;4.50;98528.00;;;;4957052;28;20310;-85
2023/12/17 09:09:11;;;;;;;3.50;3.20;;;6.30;79.50;4.60;98528.00;;;;4963921;28;20210;-87
2023/12/17 09:11:39;;;;;;;4.27;3.63;;;6.30;79.60;4.60;98540.00;;;;4952939;28;20222;-86
2023/12/17 09:14:07;;;;;;;4.17;3.83;;;6.40;79.70;4.70;98538.00;;;;4962011;28;20202;-87
2023/12/17 09:16:36;;;;;;;5.50;4.67;;;6.40;79.50;4.70;98534.00;;;;4960216;28;20248;-84
2023/12/17 09:19:03;;;;;;;7.83;6.03;;;6.50;79.50;4.80;98528.00;;;;4959934;28;20283;-86
2023/12/17 09:21:30;;;;;;;8.63;6.53;;;6.50;79.40;4.80;98529.00;;;;4966867;28;20206;-86
2023/12/17 09:23:57;;;;;;;6.40;4.63;;;7.50;79.90;4.90;98506.00;;;;4967576;28;20239;-87
2023/12/17 09:26:24;;;;;;;4.30;3.87;;;6.60;79.30;4.90;98517.00;;;;4955704;28;20219;-87
2023/12/17 09:28:51;;;;;;;4.13;3.73;;;6.60;79.30;5.00;98524.00;;;;4962043;28;20512;-87
2023/12/17 09:31:18;;;;;;;4.43;3.43;;;6.70;79.40;5.00;98528.00;;;;4963347;28;20282;-87
2023/12/17 09:33:47;;;;;;;3.93;2.77;;;6.80;79.60;5.10;98531.00;;;;4966421;28;20290;-87
2023/12/17 09:36:16;;;;;;;2.77;2.50;;;7.30;79.80;5.20;98536.00;;;;4962658;28;20287;-87
2023/12/17 09:38:43;;;;;;;3.50;2.50;;;7.50;80.20;5.20;98525.00;;;;4964263;28;20310;-87
2023/12/17 09:41:10;;;;;;;4.43;2.80;;;6.90;80.20;5.40;98525.00;;;;4967815;28;20223;-87
2023/12/17 09:43:37;;;;;;;3.80;3.03;;;7.80;81.10;5.50;98535.00;;;;4963561;28;20294;-87
2023/12/17 09:46:05;;;;;;;3.53;3.20;;;7.10;81.10;5.70;98520.00;;;;4964073;28;20226;-86
2023/12/17 09:48:32;;;;;;;3.13;2.80;;;7.30;81.70;5.90;98538.00;;;;4964488;28;20212;-86
2023/12/17 09:51:02;;;;;;;2.87;2.57;;;8.30;82.60;6.00;98526.00;;;;4963373;28;20294;-86
2023/12/17 09:53:31;;;;;;;2.80;2.50;;;7.60;82.20;6.20;98536.00;;;;4966249;28;20208;-87
2023/12/17 09:55:58;;;;;;;3.10;2.90;;;7.70;82.40;6.40;98538.00;;;;4965303;28;20215;-87
2023/12/17 09:58:26;;;;;;;2.63;2.37;;;8.00;82.70;6.60;98530.00;;;;4959387;28;20234;-87
2023/12/17 10:00:54;;;;;;;3.50;2.90;;;8.20;82.80;6.90;98535.00;;;;4963196;28;20199;-87
2023/12/17 10:03:21;;;;;;;2.90;2.63;;;8.40;83.10;7.10;98541.00;;;;4964117;28;20204;-87
2023/12/17 10:05:52;;;;;;;2.93;2.70;;;8.60;83.20;7.30;98523.00;;;;4961766;28;20274;-87
2023/12/17 10:08:21;;;;;;;3.07;2.53;;;8.80;82.70;7.50;98529.00;;;;4965792;28;20212;-87
2023/12/17 10:10:48;;;;;;;2.43;2.23;;;9.00;82.50;7.80;98531.00;;;;4966163;28;20651;-87
2023/12/17 10:13:19;;;;;;;2.70;2.50;;;9.20;82.40;7.90;98528.00;;;;4955570;28;20200;-86
2023/12/17 10:15:50;;;;;;;2.43;2.20;;;9.50;81.90;8.10;98524.00;;;;4963539;28;20224;-87
2023/12/17 10:18:18;;;;;;;2.73;2.33;;;9.60;81.60;8.30;98526.00;;;;4964685;28;20227;-86
2023/12/17 10:20:46;;;;;;;2.03;1.90;;;9.70;81.40;8.40;98516.00;;;;4969693;28;20666;-87
2023/12/17 10:23:14;;;;;;;2.70;2.50;;;10.00;81.20;8.60;98528.00;;;;4962279;28;20200;-86
2023/12/17 10:25:44;;;;;;;2.20;1.97;;;10.10;80.50;8.70;98523.00;;;;4961783;28;20226;-86
2023/12/17 10:28:13;;;;;;;2.03;1.93;;;10.20;79.70;8.80;98527.00;;;;4956069;28;20214;-87
2023/12/17 10:30:41;;;;;;;3.17;1.80;;;10.30;79.40;8.80;98522.00;;;;4956842;28;20694;-87
2023/12/17 10:33:11;;;;;;;2.03;1.87;;;10.40;79.10;8.90;98528.00;;;;4969184;28;20212;-86
2023/12/17 10:35:39;;;;;;;1.90;1.80;;;10.50;78.40;8.90;98519.00;;;;4954874;28;20220;-86
2023/12/17 10:38:07;;;;;;;2.60;2.40;;;10.50;77.50;8.90;98525.00;;;;4955792;28;20216;-87
2023/12/17 10:40:36;;;;;;;1.93;1.83;;;11.10;77.00;8.80;98518.00;;;;4966722;28;20210;-85
2023/12/17 10:43:06;;;;;;;2.63;2.43;;;10.40;76.10;8.70;98515.00;;;;4950409;28;20255;-87
2023/12/17 10:45:36;;;;;;;3.10;2.50;;;10.40;75.60;8.60;98511.00;;;;4956396;28;20674;-86
2023/12/17 10:48:05;;;;;;;2.97;2.67;;;10.30;75.60;8.50;98504.00;;;;4954977;28;20199;-87
2023/12/17 10:50:36;;;;;;;2.60;2.40;;;10.30;75.50;8.40;98499.00;;;;4958178;28;20323;-86
2023/12/17 10:53:04;;;;;;;3.20;2.90;;;10.20;75.00;8.40;98485.00;;;;4956471;28;20196;-87
2023/12/17 10:55:32;;;;;;;2.90;2.60;;;10.10;74.80;8.40;98483.00;;;;4959308;28;20454;-86
2023/12/17 10:58:05;;;;;;;2.57;2.37;;;10.10;74.60;8.30;98486.00;;;;4962343;28;20269;-87
2023/12/17 11:00:39;;;;;;;2.53;2.33;;;10.00;74.50;8.30;98479.00;;;;4964282;28;20738;-88
2023/12/17 11:03:10;;;;;;;2.03;1.93;;;8.30;73.60;8.30;98476.00;;;;4960520;28;20279;-87
2023/12/17 11:05:38;;;;;;;2.80;2.53;;;9.10;74.50;8.20;98467.00;;;;4952293;28;20596;-87
2023/12/17 11:08:06;;;;;;;2.60;2.40;;;9.80;74.80;8.20;98469.00;;;;4969672;28;20219;-86